This is the latest recevied weather packets stored in our database for station/object IW0REF-8. If no packets are shown the sender has not sent any weather packets the latest 10 day(s).
| Time | Temp. | Humidity | Pressure | Rain* | Wind** | Luminosity | Snow |
|---|---|---|---|---|---|---|---|
| 1777226142 | 20.56° C | 31% | 1020.5 hPa | - | - | - | - |
| 1777225242 | 22.78° C | 27% | 1019.4 hPa | - | - | - | - |
| 1777224342 | 25° C | 23% | 1018.4 hPa | - | - | - | - |
| 1777223442 | 28.33° C | 19% | 1017.5 hPa | - | - | - | - |
| 1777222542 | 28.33° C | 18% | 1016.9 hPa | - | - | - | - |
| 1777221642 | 28.33° C | 17% | 1016.9 hPa | - | - | - | - |
| 1777220741 | 28.33° C | 18% | 1017 hPa | - | - | - | - |
| 1777219841 | 27.78° C | 18% | 1016.9 hPa | - | - | - | - |
| 1777218941 | 27.22° C | 18% | 1016.8 hPa | - | - | - | - |
| 1777218040 | 27.22° C | 17% | 1016.4 hPa | - | - | - | - |
| 1777217139 | 27.78° C | 15% | 1016.1 hPa | - | - | - | - |
| 1777216239 | 26.11° C | 16% | 1016.3 hPa | - | - | - | - |
| 1777215339 | 27.78° C | 14% | 1015.5 hPa | - | - | - | - |
| 1777214438 | 30.56° C | 11% | 1015 hPa | - | - | - | - |
| 1777213537 | 29.44° C | 12% | 1015.1 hPa | - | - | - | - |
| 1777212637 | 29.44° C | 11% | 1015.3 hPa | - | - | - | - |
| 1777211736 | 28.89° C | 12% | 1015.7 hPa | - | - | - | - |
| 1777210836 | 28.89° C | 14% | 1016.1 hPa | - | - | - | - |
| 1777209937 | 28.33° C | 13% | 1016 hPa | - | - | - | - |
| 1777209035 | 28.33° C | 14% | 1016.3 hPa | - | - | - | - |
| 1777208135 | 28.33° C | 14% | 1016.5 hPa | - | - | - | - |
| 1777207235 | 28.33° C | 15% | 1016.7 hPa | - | - | - | - |
| 1777206335 | 27.22° C | 14% | 1016.6 hPa | - | - | - | - |
| 1777205435 | 26.67° C | 14% | 1016.8 hPa | - | - | - | - |
| 1777204535 | 26.67° C | 12% | 1016.2 hPa | - | - | - | - |
* Rain since midnight (hover to see other rain measurements)
** Current wind speed in m/s (hover to see current wind gust speed)